Terminal Aerodrome Forecast
Issued by NWS Upton, NY

Home | Current Version | Previous Version | Text Only | Print | Product List | Glossary On
Versions: 1 2 3 4 5 6 7 8 9 10 11 12 13 14 15 16 17 18 19 20 21 22 23 24 25 26 27 28 29 30 31 32 33 34
000
FTUS41 KOKX 011943 AAA
TAFISP
TAF AMD
KISP 011943Z 0120/0218 02009KT 2SM -DZ BR OVC005
     FM020500 05007KT 4SM -DZ BR OVC005
     FM021600 07007KT 4SM -DZ BR OVC008=

USA.gov is the U.S. government's official web portal to all federal, state and local government web resources and services.